Country
Station

 

Weather  for  Enna  -  Italy    Italy

  
8 °C (46 °F)
    
 
 

Current METAR for Enna is :

LICE 200602Z 26017G38KT 0600 -TSRA FG VV002 08/08 Q1003 RMK MON INVIS NC VAL INVIS NC VIS MIN 0600

 

This is a report for Enna - Italy.
 
The report was made 517 hours and 24 minutes ago, at 06:02 UTC .
The wind was blowing at a speed of 8.7 meters per second (19.6 miles per hour) with gusts up to 19.5 meters per second (43.7 miles per hour) from west (260°).
 
The temperature was 8 °C (46 °F), with a dew-point at 8 °C (46 °F).
The atmospheric pressure was 1003 hPa (29.62 inHg).
The relative humidity was 100.0%.
 
There were a vertical visibility of 61 meter (200 feet).
 
The overall visibility was 600 meter (1969 feet).
 
Currently thunderstorm with light rain plus fog.

 
 
 
 

Country :   A   B   C   D   E   F   G   H   I   J   K   L   M   N   O   P   Q   R   S   T   U   V   W   Y   Z

 

Site Info  |  Disclaimer  |  Credits  |  Privacy
Contact us  |  Add to favorites
© 2013-2018 METARs - All rights reserved